sensor_id;sensor_type;location;lat;lon;timestamp;temperature;humidity
40758;DHT22;26462;47.384;19.218;2022-11-04T00:05:51;10.30;99.90
40758;DHT22;26462;47.384;19.218;2022-11-04T00:08:18;10.30;99.90
40758;DHT22;26462;47.384;19.218;2022-11-04T00:10:56;10.30;99.90
40758;DHT22;26462;47.384;19.218;2022-11-04T00:13:42;10.30;99.90
40758;DHT22;26462;47.384;19.218;2022-11-04T00:30:18;10.40;99.90
40758;DHT22;26462;47.384;19.218;2022-11-04T00:43:20;10.40;99.90
40758;DHT22;26462;47.384;19.218;2022-11-04T00:45:53;10.30;99.90
40758;DHT22;26462;47.384;19.218;2022-11-04T00:48:21;10.20;99.90
40758;DHT22;26462;47.384;19.218;2022-11-04T00:50:51;10.20;99.90
40758;DHT22;26462;47.384;19.218;2022-11-04T01:45:12;10.10;99.90
40758;DHT22;26462;47.384;19.218;2022-11-04T01:47:43;10.10;99.90
40758;DHT22;26462;47.384;19.218;2022-11-04T02:07:20;10.20;99.90
40758;DHT22;26462;47.384;19.218;2022-11-04T02:09:52;10.20;99.90
40758;DHT22;26462;47.384;19.218;2022-11-04T02:12:54;10.20;99.90
40758;DHT22;26462;47.384;19.218;2022-11-04T03:40:20;10.30;99.90
40758;DHT22;26462;47.384;19.218;2022-11-04T03:46:28;10.30;99.90
40758;DHT22;26462;47.384;19.218;2022-11-04T03:49:12;10.20;99.90
40758;DHT22;26462;47.384;19.218;2022-11-04T03:51:53;10.10;99.90
40758;DHT22;26462;47.384;19.218;2022-11-04T05:23:15;9.90;99.90
40758;DHT22;26462;47.384;19.218;2022-11-04T12:37:41;12.20;99.90
40758;DHT22;26462;47.384;19.218;2022-11-04T15:43:44;11.80;99.90
40758;DHT22;26462;47.384;19.218;2022-11-04T15:46:27;11.80;99.90
40758;DHT22;26462;47.384;19.218;2022-11-04T18:22:29;11.70;99.90
40758;DHT22;26462;47.384;19.218;2022-11-04T18:25:00;11.70;99.90
40758;DHT22;26462;47.384;19.218;2022-11-04T18:27:50;11.70;99.90
40758;DHT22;26462;47.384;19.218;2022-11-04T18:30:17;11.70;99.90
40758;DHT22;26462;47.384;19.218;2022-11-04T18:32:50;11.70;99.90
40758;DHT22;26462;47.384;19.218;2022-11-04T18:41:52;11.60;99.90
40758;DHT22;26462;47.384;19.218;2022-11-04T18:44:22;11.60;99.90
40758;DHT22;26462;47.384;19.218;2022-11-04T18:47:14;11.60;99.90
40758;DHT22;26462;47.384;19.218;2022-11-04T18:49:42;11.60;99.90
40758;DHT22;26462;47.384;19.218;2022-11-04T18:52:11;11.60;99.90
40758;DHT22;26462;47.384;19.218;2022-11-04T18:54:41;11.60;99.90
40758;DHT22;26462;47.384;19.218;2022-11-04T18:57:10;11.60;99.90
40758;DHT22;26462;47.384;19.218;2022-11-04T19:03:09;11.60;99.90
40758;DHT22;26462;47.384;19.218;2022-11-04T20:15:29;11.40;99.90
40758;DHT22;26462;47.384;19.218;2022-11-04T20:25:05;11.40;99.90
40758;DHT22;26462;47.384;19.218;2022-11-04T20:27:32;11.40;99.90
40758;DHT22;26462;47.384;19.218;2022-11-04T20:30:03;11.40;99.90
40758;DHT22;26462;47.384;19.218;2022-11-04T20:32:31;11.40;99.90
40758;DHT22;26462;47.384;19.218;2022-11-04T20:35:00;11.40;99.90
40758;DHT22;26462;47.384;19.218;2022-11-04T20:37:28;11.40;99.90
40758;DHT22;26462;47.384;19.218;2022-11-04T20:39:55;11.40;99.90
40758;DHT22;26462;47.384;19.218;2022-11-04T20:42:23;11.40;99.90
40758;DHT22;26462;47.384;19.218;2022-11-04T20:44:52;11.40;99.90
40758;DHT22;26462;47.384;19.218;2022-11-04T20:47:20;11.40;99.90
40758;DHT22;26462;47.384;19.218;2022-11-04T20:49:48;11.40;99.90
40758;DHT22;26462;47.384;19.218;2022-11-04T20:52:16;11.40;99.90
40758;DHT22;26462;47.384;19.218;2022-11-04T20:54:44;11.40;99.90
40758;DHT22;26462;47.384;19.218;2022-11-04T20:57:11;11.40;99.90
40758;DHT22;26462;47.384;19.218;2022-11-04T20:59:39;11.40;99.90
40758;DHT22;26462;47.384;19.218;2022-11-04T21:02:09;11.40;99.90
40758;DHT22;26462;47.384;19.218;2022-11-04T21:04:38;11.40;99.90
40758;DHT22;26462;47.384;19.218;2022-11-04T21:07:06;11.40;99.90
40758;DHT22;26462;47.384;19.218;2022-11-04T21:09:33;11.40;99.90
40758;DHT22;26462;47.384;19.218;2022-11-04T21:12:03;11.40;99.90
40758;DHT22;26462;47.384;19.218;2022-11-04T21:14:30;11.40;99.90
40758;DHT22;26462;47.384;19.218;2022-11-04T21:17:04;11.40;99.90
40758;DHT22;26462;47.384;19.218;2022-11-04T21:19:32;11.40;99.90
40758;DHT22;26462;47.384;19.218;2022-11-04T21:21:59;11.40;99.90
40758;DHT22;26462;47.384;19.218;2022-11-04T21:24:27;11.40;99.90
40758;DHT22;26462;47.384;19.218;2022-11-04T21:27:04;11.40;99.90
40758;DHT22;26462;47.384;19.218;2022-11-04T21:29:32;11.40;99.90
40758;DHT22;26462;47.384;19.218;2022-11-04T21:32:00;11.40;99.90
40758;DHT22;26462;47.384;19.218;2022-11-04T21:40:33;11.40;99.90
40758;DHT22;26462;47.384;19.218;2022-11-04T21:43:03;11.30;99.90
40758;DHT22;26462;47.384;19.218;2022-11-04T22:22:16;11.30;99.90
40758;DHT22;26462;47.384;19.218;2022-11-04T22:49:19;11.40;99.90
40758;DHT22;26462;47.384;19.218;2022-11-04T22:51:46;11.40;99.90
40758;DHT22;26462;47.384;19.218;2022-11-04T22:54:13;11.40;99.90
40758;DHT22;26462;47.384;19.218;2022-11-04T22:57:00;11.40;99.90
40758;DHT22;26462;47.384;19.218;2022-11-04T22:59:27;11.40;99.90
40758;DHT22;26462;47.384;19.218;2022-11-04T23:01:54;11.40;99.90
40758;DHT22;26462;47.384;19.218;2022-11-04T23:04:21;11.40;99.90
40758;DHT22;26462;47.384;19.218;2022-11-04T23:06:48;11.40;99.90
40758;DHT22;26462;47.384;19.218;2022-11-04T23:09:15;11.40;99.90
40758;DHT22;26462;47.384;19.218;2022-11-04T23:11:42;11.30;99.90
40758;DHT22;26462;47.384;19.218;2022-11-04T23:14:28;11.30;99.90
40758;DHT22;26462;47.384;19.218;2022-11-04T23:17:25;11.30;99.90
40758;DHT22;26462;47.384;19.218;2022-11-04T23:20:12;11.20;99.90
40758;DHT22;26462;47.384;19.218;2022-11-04T23:22:40;11.20;99.90
40758;DHT22;26462;47.384;19.218;2022-11-04T23:25:30;11.20;99.90
40758;DHT22;26462;47.384;19.218;2022-11-04T23:27:57;11.20;99.90
40758;DHT22;26462;47.384;19.218;2022-11-04T23:30:50;11.10;99.90
40758;DHT22;26462;47.384;19.218;2022-11-04T23:33:17;11.10;99.90
40758;DHT22;26462;47.384;19.218;2022-11-04T23:36:05;11.00;99.90
40758;DHT22;26462;47.384;19.218;2022-11-04T23:38:50;11.00;99.90
40758;DHT22;26462;47.384;19.218;2022-11-04T23:41:17;11.00;99.90
40758;DHT22;26462;47.384;19.218;2022-11-04T23:44:03;11.00;99.90
40758;DHT22;26462;47.384;19.218;2022-11-04T23:46:30;10.90;99.90
40758;DHT22;26462;47.384;19.218;2022-11-04T23:49:15;10.90;99.90
40758;DHT22;26462;47.384;19.218;2022-11-04T23:52:01;10.90;99.90
40758;DHT22;26462;47.384;19.218;2022-11-04T23:54:46;10.90;99.90
40758;DHT22;26462;47.384;19.218;2022-11-04T23:57:32;10.80;99.90
